createdAt,value
2022-10-08T00:53:45.503Z,3.33
2022-10-08T00:56:12.584Z,3.63
2022-10-08T00:58:43.085Z,3.50
2022-10-08T01:01:10.119Z,3.03
2022-10-08T01:03:37.240Z,3.00
2022-10-08T01:06:35.776Z,3.07
2022-10-08T01:09:44.355Z,3.40
2022-10-08T01:34:03.168Z,2.97
2022-10-08T01:36:37.236Z,3.20
2022-10-08T01:39:32.431Z,3.23
2022-10-08T01:48:10.404Z,3.20
2022-10-08T01:53:44.320Z,2.60
2022-10-08T01:56:26.511Z,2.60
2022-10-08T01:59:09.305Z,3.13
2022-10-08T02:34:18.282Z,3.57
2022-10-08T02:36:53.337Z,3.80
2022-10-08T02:39:21.658Z,3.47
2022-10-08T02:41:53.865Z,3.57
2022-10-08T02:44:41.573Z,4.17
2022-10-08T02:47:19.299Z,3.93
2022-10-08T02:50:07.174Z,4.33
2022-10-08T02:52:39.015Z,4.27
2022-10-08T02:55:22.902Z,4.93
2022-10-08T02:58:05.304Z,3.90
2022-10-08T03:00:48.751Z,4.20
2022-10-08T03:03:21.680Z,4.07
2022-10-08T03:05:53.362Z,3.97
2022-10-08T03:08:22.994Z,5.07
2022-10-08T03:10:50.867Z,4.47
2022-10-08T03:13:18.829Z,4.47
2022-10-08T03:15:53.571Z,5.23
2022-10-08T03:18:22.838Z,5.13
2022-10-08T03:20:53.301Z,5.23
2022-10-08T03:23:20.486Z,5.50
2022-10-08T03:25:47.928Z,5.27
2022-10-08T03:28:15.599Z,6.37
2022-10-08T03:30:43.520Z,5.40
2022-10-08T03:33:13.582Z,5.03
2022-10-08T03:35:49.078Z,5.43
2022-10-08T03:41:00.616Z,5.20
2022-10-08T03:46:16.120Z,6.47
2022-10-08T03:48:48.232Z,6.03
2022-10-08T03:54:00.754Z,6.40
2022-10-08T03:56:28.282Z,6.57
2022-10-08T03:59:05.104Z,7.23
2022-10-08T04:04:46.655Z,7.27
2022-10-08T04:09:56.182Z,7.20
2022-10-08T04:12:46.290Z,7.27
2022-10-08T04:15:36.798Z,6.97
2022-10-08T04:18:04.541Z,7.77
2022-10-08T04:20:34.106Z,7.67
2022-10-08T04:34:11.911Z,8.17
2022-10-08T04:36:40.801Z,9.00
2022-10-08T04:39:08.375Z,9.37
2022-10-08T04:41:38.001Z,8.80
2022-10-08T04:44:05.034Z,8.77
2022-10-08T04:46:39.322Z,8.77
2022-10-08T04:49:06.459Z,9.43
2022-10-08T04:51:34.050Z,8.93
2022-10-08T04:54:02.013Z,8.60
2022-10-08T04:56:31.168Z,9.33
2022-10-08T04:59:00.310Z,9.63
2022-10-08T05:01:28.449Z,9.67
2022-10-08T05:03:57.570Z,9.67
2022-10-08T05:06:32.332Z,9.30
2022-10-08T05:09:08.161Z,10.20
2022-10-08T05:11:35.224Z,9.33
2022-10-08T05:14:03.993Z,10.37
2022-10-08T05:16:31.161Z,11.07
2022-10-08T05:19:02.678Z,10.53
2022-10-08T05:21:42.075Z,10.70
2022-10-08T05:24:12.755Z,10.53
2022-10-08T05:27:08.190Z,11.33
2022-10-08T05:29:38.335Z,11.37
2022-10-08T05:32:07.759Z,12.80
2022-10-08T05:34:39.755Z,12.63
2022-10-08T05:37:31.324Z,13.00
2022-10-08T05:40:03.109Z,12.57
2022-10-08T05:42:31.835Z,13.50
2022-10-08T05:47:55.741Z,13.23
2022-10-08T05:50:35.065Z,13.77
2022-10-08T05:55:48.528Z,14.30
2022-10-08T05:58:21.652Z,14.53
2022-10-08T06:01:19.284Z,14.23
2022-10-08T06:04:09.239Z,14.87
2022-10-08T06:06:41.158Z,15.63
2022-10-08T06:09:18.032Z,15.50
2022-10-08T06:11:48.604Z,17.00
2022-10-08T06:14:27.418Z,15.67
2022-10-08T06:17:01.308Z,15.90
2022-10-08T06:30:49.438Z,14.70
2022-10-08T06:33:18.134Z,14.20
2022-10-08T06:35:54.327Z,14.00
2022-10-08T06:38:22.768Z,15.37
2022-10-08T06:40:50.697Z,14.97
2022-10-08T06:43:21.794Z,13.60
2022-10-08T06:45:51.290Z,13.43
2022-10-08T06:48:20.803Z,13.47
2022-10-08T06:50:48.583Z,13.87
2022-10-08T06:53:15.831Z,13.10
2022-10-08T06:55:43.593Z,14.00
2022-10-08T06:58:11.006Z,12.80
2022-10-08T07:00:40.250Z,13.80
2022-10-08T07:03:08.137Z,12.53
2022-10-08T07:05:35.309Z,12.70
2022-10-08T07:08:02.900Z,13.37
2022-10-08T07:10:33.749Z,12.83
2022-10-08T07:13:01.422Z,12.37
2022-10-08T07:15:33.636Z,12.40
2022-10-08T07:18:01.423Z,11.80
2022-10-08T07:20:28.686Z,11.80
2022-10-08T07:29:16.378Z,10.80
2022-10-08T07:31:45.084Z,10.53
2022-10-08T07:34:14.186Z,11.50
2022-10-08T07:36:41.984Z,11.00
2022-10-08T07:39:14.720Z,10.67
2022-10-08T07:47:03.802Z,10.00
2022-10-08T07:49:30.720Z,8.83
2022-10-08T07:51:57.614Z,8.33
2022-10-08T07:54:24.466Z,8.47
2022-10-08T07:56:51.377Z,8.63
2022-10-08T07:59:18.202Z,8.60
2022-10-08T08:01:45.429Z,7.83
2022-10-08T08:04:12.646Z,8.10
2022-10-08T08:06:45.395Z,7.47
2022-10-08T08:09:14.404Z,8.00
2022-10-08T08:11:41.438Z,8.90
2022-10-08T08:14:14.676Z,7.90
2022-10-08T08:16:41.572Z,7.95
2022-10-08T08:19:08.613Z,7.13
2022-10-08T08:21:37.521Z,6.67
2022-10-08T08:24:12.437Z,6.10
2022-10-08T08:29:11.354Z,6.23
2022-10-08T08:31:46.107Z,5.88
2022-10-08T08:34:19.648Z,6.23
2022-10-08T08:36:51.764Z,5.70
2022-10-08T08:39:21.902Z,5.03
2022-10-08T08:42:27.159Z,5.30
2022-10-08T08:45:01.273Z,5.13
2022-10-08T08:51:40.692Z,5.70
2022-10-08T08:54:13.966Z,5.40
2022-10-08T08:57:31.619Z,5.20
2022-10-08T09:00:05.955Z,4.47
2022-10-08T09:02:37.628Z,4.43
2022-10-08T09:05:14.801Z,4.47
2022-10-08T09:58:04.132Z,2.20
2022-10-08T10:00:39.678Z,2.40
2022-10-08T10:03:15.658Z,2.35
2022-10-08T10:05:43.147Z,2.00
2022-10-08T10:08:43.714Z,2.33
2022-10-08T10:11:21.364Z,2.00
2022-10-08T10:19:04.983Z,2.05
2022-10-08T10:21:59.738Z,2.03
2022-10-08T10:24:46.590Z,2.00
2022-10-08T10:27:29.720Z,1.90
2022-10-08T10:30:22.258Z,1.77
2022-10-08T10:32:56.529Z,1.90
2022-10-08T10:35:34.576Z,2.00
2022-10-08T10:38:15.661Z,1.73
2022-10-08T10:41:04.394Z,1.73
2022-10-08T10:43:52.941Z,1.77
2022-10-08T10:48:52.343Z,1.67
2022-10-08T10:51:19.456Z,2.03
2022-10-08T10:54:00.088Z,2.22
2022-10-08T10:56:31.838Z,1.92
2022-10-08T10:59:40.256Z,2.07
2022-10-08T11:02:16.303Z,1.80
2022-10-08T11:05:02.498Z,1.73
2022-10-08T11:07:58.957Z,1.30
2022-10-08T11:10:52.106Z,2.05
2022-10-08T11:13:25.091Z,1.80
2022-10-08T11:16:29.182Z,1.67
2022-10-08T11:19:01.261Z,1.90
2022-10-08T11:55:27.263Z,1.48
2022-10-08T11:58:08.744Z,1.63
2022-10-08T12:00:48.598Z,1.77
2022-10-08T12:03:23.925Z,1.50
2022-10-08T12:05:54.375Z,1.97
2022-10-08T12:08:53.680Z,1.60
2022-10-08T12:11:50.040Z,1.50
2022-10-08T12:14:17.697Z,1.50
2022-10-08T12:16:57.046Z,1.43
2022-10-08T12:19:35.943Z,1.33
2022-10-08T12:22:18.106Z,1.40
2022-10-08T12:24:50.036Z,1.43
2022-10-08T12:27:17.686Z,1.30
2022-10-08T12:30:03.426Z,1.57
2022-10-08T12:32:33.150Z,1.40
2022-10-08T12:35:01.801Z,1.70
2022-10-08T12:37:56.974Z,1.50
2022-10-08T12:40:38.856Z,1.50
2022-10-08T12:43:20.571Z,1.50
2022-10-08T12:46:05.086Z,1.53
2022-10-08T12:49:12.503Z,1.43
2022-10-08T12:51:44.151Z,1.00
2022-10-08T12:54:21.023Z,1.10
2022-10-08T12:56:48.675Z,1.07
2022-10-08T12:59:17.963Z,1.17
2022-10-08T13:01:47.271Z,1.17
2022-10-08T13:04:22.906Z,1.10
2022-10-08T13:06:52.693Z,1.43
2022-10-08T13:09:35.108Z,1.13
2022-10-08T13:12:07.911Z,1.20
2022-10-08T13:14:38.750Z,1.37
2022-10-08T13:17:06.565Z,1.30
2022-10-08T13:19:39.499Z,1.30
2022-10-08T13:22:26.975Z,1.77
2022-10-08T13:24:54.553Z,2.13
2022-10-08T13:27:30.809Z,1.20
2022-10-08T13:29:59.137Z,1.90
2022-10-08T13:32:39.820Z,1.90
2022-10-08T13:35:19.534Z,1.57
2022-10-08T13:37:53.822Z,1.30
2022-10-08T13:40:26.178Z,1.53
2022-10-08T13:43:03.494Z,1.73
2022-10-08T13:45:38.209Z,1.50
2022-10-08T13:48:11.221Z,1.60
2022-10-08T13:50:46.076Z,1.80
2022-10-08T13:53:15.975Z,1.70
2022-10-08T13:55:46.433Z,1.50
2022-10-08T13:58:15.964Z,2.00
2022-10-08T14:00:44.857Z,2.43
2022-10-08T14:03:13.551Z,2.07
2022-10-08T14:05:46.440Z,1.90
2022-10-08T14:08:21.305Z,1.67
2022-10-08T14:10:48.458Z,1.63
2022-10-08T14:13:16.533Z,1.50
2022-10-08T14:15:43.721Z,1.70
2022-10-08T14:18:10.989Z,2.00
2022-10-08T14:20:41.371Z,1.93
2022-10-08T14:23:10.071Z,1.53
2022-10-08T14:25:36.994Z,1.97
2022-10-08T14:28:04.488Z,1.73
2022-10-08T14:30:32.755Z,1.60
2022-10-08T14:32:59.762Z,1.90
2022-10-08T14:35:27.061Z,1.80
2022-10-08T14:37:54.364Z,1.90
2022-10-08T14:40:23.305Z,1.83
2022-10-08T14:42:51.739Z,1.80
2022-10-08T14:45:19.184Z,1.50
2022-10-08T14:47:46.371Z,2.40
2022-10-08T14:50:14.107Z,1.80
2022-10-08T14:52:52.870Z,1.50
2022-10-08T14:55:21.059Z,1.60
2022-10-08T14:57:49.098Z,1.57
2022-10-08T15:00:23.343Z,1.93
2022-10-08T15:02:53.609Z,1.60
2022-10-08T15:05:23.314Z,1.63
2022-10-08T15:07:51.014Z,1.50
2022-10-08T15:10:19.150Z,1.60
2022-10-08T15:12:46.627Z,1.53
2022-10-08T15:15:19.791Z,1.20
2022-10-08T15:17:50.888Z,1.60
2022-10-08T15:20:21.246Z,1.77
2022-10-08T15:22:54.256Z,1.80
2022-10-08T15:25:22.992Z,1.50
2022-10-08T15:27:50.404Z,1.53
2022-10-08T15:30:17.425Z,1.67
2022-10-08T15:32:44.305Z,1.87
2022-10-08T15:35:15.799Z,1.90
2022-10-08T15:37:45.489Z,1.73
2022-10-08T15:40:17.179Z,2.10
2022-10-08T15:42:44.405Z,2.23
2022-10-08T15:45:11.550Z,1.63
2022-10-08T15:47:42.490Z,1.80
2022-10-08T16:25:13.223Z,2.20
2022-10-08T16:27:40.141Z,2.20
2022-10-08T16:30:07.815Z,2.50
2022-10-08T16:32:34.755Z,2.40
2022-10-08T16:35:01.647Z,2.40
2022-10-08T16:37:28.695Z,2.33
2022-10-08T16:40:22.348Z,2.40
2022-10-08T16:42:49.588Z,2.47
2022-10-08T16:45:17.076Z,2.77
2022-10-08T16:47:47.095Z,2.60
2022-10-08T16:50:33.301Z,2.63
2022-10-08T16:53:01.154Z,2.80
2022-10-08T16:55:37.644Z,2.80
2022-10-08T16:58:46.179Z,3.20
2022-10-08T20:48:03.209Z,5.40
2022-10-08T20:50:30.269Z,4.73
2022-10-08T20:52:57.411Z,4.90
2022-10-08T20:56:15.710Z,4.93
2022-10-08T20:58:44.122Z,5.03
2022-10-08T21:03:48.682Z,6.50
2022-10-08T21:06:20.123Z,5.63
2022-10-08T21:08:57.088Z,5.47
2022-10-08T21:13:52.793Z,5.10
2022-10-08T21:16:25.181Z,5.17
2022-10-08T21:19:01.631Z,5.00
2022-10-08T21:21:31.099Z,5.43
2022-10-08T21:24:00.391Z,5.50
2022-10-08T21:26:33.227Z,5.03
2022-10-08T21:29:11.288Z,5.13
2022-10-08T21:31:40.545Z,5.77
2022-10-08T21:34:12.907Z,5.10
2022-10-08T21:36:45.921Z,5.23
2022-10-08T21:39:16.938Z,4.97
2022-10-08T21:41:46.151Z,6.03
2022-10-08T21:44:25.364Z,5.83
2022-10-08T21:49:51.373Z,5.90
2022-10-08T21:52:19.548Z,4.93
2022-10-08T21:54:48.604Z,5.07
2022-10-08T21:57:20.479Z,5.27
2022-10-08T21:59:49.399Z,4.67
2022-10-08T22:02:20.430Z,4.53
2022-10-08T22:12:27.696Z,4.47
2022-10-08T22:15:01.561Z,4.57
2022-10-08T22:17:33.617Z,3.90
2022-10-08T22:20:02.480Z,4.10
2022-10-08T22:22:29.720Z,4.13
2022-10-08T22:24:57.903Z,3.97
2022-10-08T22:27:26.085Z,4.00
2022-10-08T22:29:53.315Z,3.63
2022-10-08T22:32:20.721Z,4.50
2022-10-08T22:34:48.633Z,4.07
2022-10-08T22:40:09.682Z,4.77
2022-10-08T22:42:38.360Z,5.03
2022-10-08T22:47:49.020Z,5.30
2022-10-08T22:50:18.693Z,4.80
2022-10-08T22:52:54.160Z,5.70
2022-10-08T22:55:22.581Z,5.87
2022-10-08T22:57:50.888Z,5.63
2022-10-08T23:00:18.789Z,6.10
2022-10-08T23:02:47.056Z,5.63
2022-10-08T23:07:58.390Z,6.23
2022-10-08T23:10:26.036Z,5.50
2022-10-08T23:12:54.624Z,5.33
2022-10-08T23:15:23.187Z,4.53
2022-10-08T23:17:50.278Z,5.13
2022-10-08T23:20:22.656Z,5.10
2022-10-08T23:22:51.249Z,4.63
2022-10-08T23:25:20.849Z,5.27
2022-10-08T23:27:48.860Z,4.53
2022-10-08T23:30:41.604Z,5.03
2022-10-08T23:33:06.186Z,4.57
2022-10-08T23:35:37.040Z,4.20
2022-10-08T23:38:06.954Z,5.17
2022-10-08T23:40:37.741Z,4.60
2022-10-08T23:43:06.009Z,5.43
2022-10-08T23:45:37.623Z,6.03
2022-10-08T23:48:05.604Z,5.80
2022-10-08T23:50:39.789Z,5.70
2022-10-08T23:53:09.342Z,6.67
2022-10-08T23:55:36.560Z,6.67
2022-10-08T23:58:07.711Z,6.80
